Flight Track Log - Related Links

Times and Time Zones

All times are in EDT time to prevent confusion due to time zone crossing. See the DAL1065 flight status page for this flight to view local times or setup timezone preferences in your user account.

Time Position Orientation Groundspeed Altitude Reporting Facility
EDT Latitude Longitude Course Direction KTS MPH feet Rate Location/Type
Wed 06:08:40 AM 41.9258 -72.7039 236° Southwest 167 192 1,000  Level Boston Center
Wed 06:09:04 AM 41.9203 -72.7308 255° West 171 197 2,000 1,846 Climbing Boston Center
Wed 06:09:19 AM 41.9189 -72.7464 263° West 161 185 2,200 2,480 Climbing Boston Center
Wed 06:10:19 AM 41.9186 -72.8358 270° West 239 275 5,100 3,176 Climbing Boston Center
Wed 06:11:00 AM 41.9089 -73.1100 265° West  Level FlightAware Approximate
Wed 06:11:18 AM 41.9150 -72.9306 267° West 254 292 8,500  Level Boston Center
Wed 06:12:00 AM 41.9000 -73.2524 270° West  Level FlightAware Approximate
Wed 06:12:18 AM 41.9150 -73.0328 270° West 271 312 10,900  Level Boston Center
Wed 06:13:00 AM 41.8605 -73.3791 236° Southwest  Level FlightAware Approximate
Wed 06:13:18 AM 41.9136 -73.1478 269° West 304 350 14,300  Level Boston Center
Wed 06:14:22 AM 41.9100 -73.2772 268° West 319 367 18,400 3,246 Climbing Boston Center
Wed 06:15:20 AM 41.8758 -73.3636 242° Southwest 323 372 20,900 2,949 Climbing Boston Center
Wed 06:16:20 AM 41.8283 -73.4689 239° Southwest 328 377 24,200 3,512 Climbing Boston Center
Wed 06:17:23 AM 41.7850 -73.5667 239° Southwest 312 359 28,100 2,683 Climbing Boston Center
Wed 06:18:23 AM 41.7086 -73.6428 217° Southwest 295 339 29,700 1,412 Climbing Boston Center
Wed 06:19:22 AM 41.6364 -73.7008 211° Southwest 307 353 30,900 1,387 Climbing Boston Center
Wed 06:25:14 AM 41.1817 -74.0643 211° Southwest 317 365 39,200 1,258 Climbing FlightAware ADS-B (KPHL)
Wed 06:25:58 AM 41.1296 -74.1162 227° Southwest 332 382 39,200 78 Level FlightAware ADS-B (KPHL)
Wed 06:26:31 AM 41.0973 -74.1681 231° Southwest 341 392 39,300 261 Climbing FlightAware ADS-B (KPHL)
Wed 06:27:30 AM 41.0410 -74.2592 231° Southwest 350 403 39,600 238 Climbing FlightAware ADS-B (KPHL)
Wed 06:28:12 AM 40.9946 -74.3342 231° Southwest 351 404 39,700 180 Climbing FlightAware ADS-B (KPHL)
Wed 06:29:10 AM 40.9350 -74.4303 231° Southwest 351 404 39,900 194 Climbing FlightAware ADS-B (KPHL)
Wed 06:29:45 AM 40.8991 -74.4879 231° Southwest 352 405 40,000 92 Climbing FlightAware ADS-B (KPHL)
Wed 06:30:15 AM 40.8669 -74.5395 231° Southwest 353 406 40,000  Level FlightAware ADS-B (KPHL)
Wed 06:30:46 AM 40.8356 -74.5897 231° Southwest 355 409 40,000  Level FlightAware ADS-B (KPHL)
Wed 06:31:25 AM 40.7949 -74.6548 231° Southwest 357 411 40,000  Level FlightAware ADS-B (KPHL)
Wed 06:31:57 AM 40.7621 -74.7072 231° Southwest 357 411 40,000  Level FlightAware ADS-B (KPHL)
Wed 06:32:58 AM 40.6965 -74.8111 230° Southwest 357 411 40,000  Level FlightAware ADS-B (KPHL)
Wed 06:34:00 AM 40.6552 -74.8766 231° Southwest 357 411 40,000  Level FlightAware ADS-B (KPHL)
Wed 06:34:42 AM 40.5875 -74.9840 230° Southwest 357 411 40,000  Level FlightAware ADS-B (KPHL)
Wed 06:35:30 AM 40.5392 -75.0602 231° Southwest 356 410 40,000  Level FlightAware ADS-B (KPHL)
Wed 06:36:17 AM 40.4892 -75.1400 231° Southwest 357 411 40,000  Level FlightAware ADS-B (KPHL)
Wed 06:36:52 AM 40.4612 -75.1843 230° Southwest 357 411 40,000  Level FlightAware ADS-B
Wed 06:37:31 AM 40.4218 -75.2465 231° Southwest 358 412 40,000  Level FlightAware ADS-B (KPHL)
Wed 06:38:14 AM 40.3652 -75.3388 231° Southwest 359 413 40,000  Level FlightAware ADS-B (KPHL)
Wed 06:38:58 AM 40.3196 -75.4129 231° Southwest 359 413 40,000  Level FlightAware ADS-B (KPHL)
Wed 06:39:29 AM 40.2883 -75.4633 231° Southwest 360 414 40,000  Level FlightAware ADS-B
Wed 06:40:02 AM 40.2529 -75.5208 231° Southwest 362 417 40,000  Level FlightAware ADS-B (KPHL)
Wed 06:40:33 AM 40.2205 -75.5731 231° Southwest 363 418 40,000  Level FlightAware ADS-B
Wed 06:41:04 AM 40.1887 -75.6243 231° Southwest 364 419 40,000  Level FlightAware ADS-B
Wed 06:41:38 AM 40.1508 -75.6849 231° Southwest 365 420 40,000  Level FlightAware ADS-B
Wed 06:42:09 AM 40.1202 -75.7341 231° Southwest 367 422 40,000  Level FlightAware ADS-B
Wed 06:42:42 AM 40.0859 -75.7892 231° Southwest 368 423 40,000  Level FlightAware ADS-B
Wed 06:43:14 AM 40.0496 -75.8474 231° Southwest 369 425 40,000  Level FlightAware ADS-B
Wed 06:43:45 AM 40.0205 -75.8937 231° Southwest 369 425 40,000  Level FlightAware ADS-B
Wed 06:44:16 AM 39.9873 -75.9468 231° Southwest 368 423 40,000  Level FlightAware ADS-B (KPHL)
Wed 06:44:47 AM 39.9509 -76.0044 231° Southwest 370 426 40,000  Level FlightAware ADS-B (LFML / MRS)
Wed 06:45:21 AM 39.9128 -76.0649 231° Southwest 370 426 40,000  Level FlightAware ADS-B
Wed 06:45:53 AM 39.8825 -76.1130 231° Southwest 371 427 40,000  Level FlightAware ADS-B
Wed 06:46:26 AM 39.8467 -76.1698 231° Southwest 372 428 40,000  Level FlightAware ADS-B (LFML / MRS)
Wed 06:47:00 AM 39.8088 -76.2297 231° Southwest 372 428 40,000  Level FlightAware ADS-B (KPHL)
Wed 06:47:31 AM 39.7700 -76.2909 231° Southwest 371 427 40,000  Level FlightAware ADS-B
Wed 06:48:02 AM 39.7400 -76.3380 231° Southwest 371 427 40,000  Level FlightAware ADS-B
Wed 06:48:34 AM 39.7081 -76.3882 231° Southwest 370 426 40,000  Level FlightAware ADS-B
Wed 06:49:05 AM 39.6691 -76.4493 230° Southwest 370 426 40,000  Level FlightAware ADS-B
Wed 06:49:35 AM 39.6465 -76.4848 231° Southwest 369 425 40,000  Level FlightAware ADS-B
Wed 06:50:05 AM 39.6032 -76.5527 231° Southwest 368 423 40,000  Level FlightAware ADS-B
Wed 06:50:35 AM 39.5712 -76.6028 230° Southwest 367 422 40,000  Level FlightAware ADS-B
Wed 06:51:11 AM 39.5327 -76.6626 230° Southwest 366 421 40,000  Level FlightAware ADS-B
Wed 06:51:45 AM 39.4974 -76.7174 230° Southwest 364 419 40,000  Level FlightAware ADS-B (LFML / MRS)
Wed 06:52:02 AM 39.4758 -76.7510 231° Southwest 363 418 40,000  Level FlightAware ADS-B (KDAA)
Wed 06:52:15 AM 39.4623 -76.7718 230° Southwest 363 418 40,000  Level FlightAware ADS-B
Wed 06:52:23 AM 39.4629 -76.7709 231° Southwest 362 417 40,000  Level FlightAware ADS-B (KDAA)
Wed 06:52:56 AM 39.4191 -76.8388 230° Southwest 363 418 40,000  Level FlightAware ADS-B
Wed 06:53:03 AM 39.4111 -76.8513 231° Southwest 362 417 40,000  Level FlightAware ADS-B (KDAA)
Wed 06:53:32 AM 39.3798 -76.8994 231° Southwest 363 418 40,000  Level FlightAware ADS-B (KDAA)
Wed 06:53:34 AM 39.3778 -76.9026 230° Southwest 364 419 40,000  Level FlightAware ADS-B (LFML / MRS)
Wed 06:54:02 AM 39.3476 -76.9492 231° Southwest 364 419 40,000  Level FlightAware ADS-B (KDAA)
Wed 06:54:06 AM 39.3444 -76.9542 230° Southwest 364 419 40,000  Level FlightAware ADS-B
Wed 06:54:32 AM 39.3147 -77.0001 231° Southwest 364 419 40,000  Level FlightAware ADS-B (KDAA)
Wed 06:54:41 AM 39.3049 -77.0151 230° Southwest 366 421 40,000  Level FlightAware ADS-B
Wed 06:55:02 AM 39.2821 -77.0502 231° Southwest 364 419 40,000  Level FlightAware ADS-B (KDAA)
Wed 06:55:15 AM 39.2777 -77.0571 230° Southwest 368 423 40,000  Level FlightAware ADS-B
Wed 06:55:32 AM 39.2493 -77.1006 230° Southwest 368 423 40,000  Level FlightAware ADS-B (KDAA)
Wed 06:55:53 AM 39.2260 -77.1366 230° Southwest 370 426 40,000  Level FlightAware ADS-B
Wed 06:56:02 AM 39.2164 -77.1513 231° Southwest 369 425 40,000  Level FlightAware ADS-B (KDAA)
Wed 06:56:25 AM 39.1993 -77.1775 230° Southwest 370 426 40,000  Level FlightAware ADS-B
Wed 06:56:32 AM 39.1842 -77.2004 230° Southwest 371 427 40,000  Level FlightAware ADS-B (KDAA)
Wed 06:57:03 AM 39.1514 -77.2505 230° Southwest 372 428 40,000  Level FlightAware ADS-B (KDAA)
Wed 06:57:32 AM 39.1169 -77.3032 230° Southwest 372 428 40,000  Level FlightAware ADS-B (KDAA)
Wed 06:57:36 AM 39.1163 -77.3040 230° Southwest 373 429 40,000  Level FlightAware ADS-B
Wed 06:58:03 AM 39.0838 -77.3536 230° Southwest 372 428 40,000  Level FlightAware ADS-B (KDAA)
Wed 06:58:15 AM 39.0802 -77.3590 230° Southwest 373 429 40,000  Level FlightAware ADS-B
Wed 06:58:32 AM 39.0498 -77.4053 230° Southwest 372 428 40,000  Level FlightAware ADS-B (KDAA)
Wed 06:59:02 AM 39.0173 -77.4548 230° Southwest 373 429 40,000  Level FlightAware ADS-B (KDAA)
Wed 06:59:32 AM 38.9835 -77.5062 230° Southwest 373 429 40,000  Level FlightAware ADS-B (KDAA)
Wed 07:00:02 AM 38.9496 -77.5574 230° Southwest 374 430 40,000  Level FlightAware ADS-B (KDAA)
Wed 07:00:32 AM 38.9168 -77.6071 230° Southwest 374 430 40,000  Level FlightAware ADS-B (KDAA)
Wed 07:01:03 AM 38.8822 -77.6592 230° Southwest 375 432 40,000  Level FlightAware ADS-B (KDAA)
Wed 07:01:33 AM 38.8483 -77.7103 230° Southwest 376 433 40,000  Level FlightAware ADS-B (KDAA)
Wed 07:02:02 AM 38.8166 -77.7580 230° Southwest 378 435 40,000  Level FlightAware ADS-B (KDAA)
Wed 07:02:33 AM 38.7815 -77.8107 230° Southwest 378 435 40,000  Level FlightAware ADS-B (KDAA)
Wed 07:03:02 AM 38.7496 -77.8584 230° Southwest 380 437 40,000  Level FlightAware ADS-B (KDAA)
Wed 07:03:33 AM 38.7130 -77.9134 230° Southwest 383 441 40,000  Level FlightAware ADS-B (KDAA)
Wed 07:04:02 AM 38.6776 -77.9666 230° Southwest 385 443 40,000  Level FlightAware ADS-B (KDAA)
Wed 07:04:32 AM 38.6427 -78.0186 230° Southwest 387 445 40,000  Level FlightAware ADS-B (KDAA)
Wed 07:05:02 AM 38.6081 -78.0700 230° Southwest 390 449 40,000  Level FlightAware ADS-B (KDAA)
Wed 07:05:33 AM 38.5814 -78.1097 230° Southwest 392 451 40,000  Level FlightAware ADS-B (KDAA)
Wed 07:05:51 AM 38.5617 -78.1390 230° Southwest 392 451 40,000  Level FlightAware ADS-B (KDAA)
Wed 07:06:55 AM 38.4798 -78.2607 230° Southwest 393 452 40,000  Level FlightAware ADS-B (KDAA)
Wed 07:07:18 AM 38.4468 -78.3094 230° Southwest 393 452 40,000  Level FlightAware ADS-B (KDAA)
Wed 07:07:47 AM 38.4137 -78.3583 229° Southwest 392 451 40,000  Level FlightAware ADS-B (KCHO)
Wed 07:08:29 AM 38.3713 -78.4210 229° Southwest 392 451 40,000  Level FlightAware ADS-B (KCHO)
Wed 07:09:10 AM 38.3152 -78.5032 229° Southwest 393 452 40,000  Level FlightAware ADS-B (KCHO)
Wed 07:09:42 AM 38.2758 -78.5610 229° Southwest 394 453 40,000  Level FlightAware ADS-B (KCHO)
Wed 07:10:21 AM 38.2314 -78.6261 229° Southwest 395 455 40,000  Level FlightAware ADS-B (KCHO)
Wed 07:10:59 AM 38.1848 -78.6944 229° Southwest 395 455 40,000  Level FlightAware ADS-B (KCHO)
Wed 07:12:02 AM 38.1161 -78.7944 229° Southwest 396 456 40,000  Level FlightAware ADS-B (KCHO)
Wed 07:12:37 AM 38.0666 -78.8662 229° Southwest 398 458 40,000  Level FlightAware ADS-B (KCHO)
Wed 07:13:07 AM 38.0308 -78.9183 229° Southwest 398 458 40,000  Level FlightAware ADS-B (KCHO)
Wed 07:13:56 AM 37.9831 -78.9956 229° Southwest 401 461 40,000  Level Washington Center
Wed 07:14:54 AM 37.9072 -79.1028 228° Southwest 401 461 40,000  Level Washington Center
Wed 07:15:55 AM 37.8397 -79.1969 228° Southwest 401 461 40,000  Level Washington Center
Wed 07:16:55 AM 37.7678 -79.2986 228° Southwest 401 461 40,000  Level Washington Center
Wed 07:17:56 AM 37.6894 -79.4022 226° Southwest 406 467 40,000  Level Washington Center
Wed 07:18:54 AM 37.6064 -79.5161 227° Southwest 406 467 40,000  Level Washington Center
Wed 07:19:54 AM 37.5386 -79.6094 228° Southwest 406 467 40,000  Level Washington Center
Wed 07:20:55 AM 37.4556 -79.7256 228° Southwest 406 467 40,000  Level Washington Center
Wed 07:21:55 AM 37.3853 -79.8211 227° Southwest 418 481 40,000  Level Washington Center
Wed 07:24:08 AM 37.2053 -80.0600 227° Southwest 403 464 40,000  Level Atlanta Center
Wed 07:25:08 AM 37.1294 -80.1653 228° Southwest 403 464 40,000  Level Atlanta Center
Wed 07:26:08 AM 37.0533 -80.2678 227° Southwest 408 470 40,000  Level Atlanta Center
Wed 07:27:08 AM 36.9833 -80.3594 226° Southwest 408 470 40,000  Level Atlanta Center
Wed 07:28:08 AM 36.9050 -80.4617 226° Southwest 408 470 40,000  Level Atlanta Center
Wed 07:29:08 AM 36.8286 -80.5664 228° Southwest 408 470 40,000  Level Atlanta Center
Wed 07:30:08 AM 36.7483 -80.6761 228° Southwest 399 459 40,000  Level Atlanta Center
Wed 07:31:08 AM 36.6781 -80.7697 227° Southwest 399 459 40,000  Level Atlanta Center
Wed 07:32:08 AM 36.6014 -80.8711 227° Southwest 408 470 40,000  Level Atlanta Center
Wed 07:33:08 AM 36.5247 -80.9722 227° Southwest 408 470 40,000  Level Atlanta Center
Wed 07:34:08 AM 36.4458 -81.0758 227° Southwest 408 470 40,000  Level Atlanta Center
Wed 07:35:08 AM 36.3711 -81.1792 228° Southwest 408 470 40,000  Level Atlanta Center
Wed 07:36:08 AM 36.2922 -81.2800 226° Southwest 408 470 40,000  Level Atlanta Center
Wed 07:37:08 AM 36.2111 -81.3856 226° Southwest 408 470 40,000  Level Atlanta Center
Wed 07:38:08 AM 36.1319 -81.4886 226° Southwest 408 470 40,000  Level Atlanta Center
Wed 07:39:08 AM 36.0528 -81.5936 227° Southwest 408 470 40,000  Level Atlanta Center
Wed 07:40:08 AM 35.9714 -81.6989 226° Southwest 408 470 40,000  Level Atlanta Center
Wed 07:41:08 AM 35.8897 -81.8036 226° Southwest 415 478 40,000 -350 Level Atlanta Center
Wed 07:42:08 AM 35.8061 -81.9108 226° Southwest 420 483 39,300 -800 Descending Atlanta Center
Wed 07:43:08 AM 35.7244 -82.0153 226° Southwest 427 491 38,400 -962 Descending Atlanta Center
Wed 07:48:47 AM 35.2469 -82.5923 223° Southwest 437 503 32,900 -962 Descending FlightAware ADS-B (KDZJ)
Wed 07:49:47 AM 35.1477 -82.7013 223° Southwest 444 511 32,000 -540 Descending FlightAware ADS-B (KDZJ)
Wed 07:50:27 AM 35.0895 -82.7652 223° Southwest 442 509 32,000  Level FlightAware ADS-B (KDZJ)
Wed 07:51:07 AM 35.0235 -82.8372 223° Southwest 438 504 32,000  Level FlightAware ADS-B (KDZJ)
Wed 07:51:47 AM 34.9644 -82.9016 223° Southwest 436 502 32,000 -225 Level FlightAware ADS-B (KDZJ)
Wed 07:52:27 AM 34.8938 -82.9787 223° Southwest 440 506 31,700 -675 Descending FlightAware ADS-B (KDZJ)
Wed 07:53:07 AM 34.8321 -83.0455 222° Southwest 441 507 31,100 -975 Descending FlightAware ADS-B (KDZJ)
Wed 07:53:47 AM 34.7686 -83.1141 222° Southwest 454 522 30,400 -1,050 Descending FlightAware ADS-B (KDZJ)
Wed 07:54:27 AM 34.7083 -83.1796 223° Southwest 444 511 29,700 -2,000 Descending FlightAware ADS-B (KDZJ)
Wed 07:55:08 AM 34.6466 -83.2472 223° Southwest 412 474 27,700 -3,075 Descending FlightAware ADS-B (KDZJ)
Wed 07:55:47 AM 34.5915 -83.3066 222° Southwest 392 451 25,600 -2,650 Descending FlightAware ADS-B (KDZJ)
Wed 07:57:08 AM 34.4814 -83.4189 222° Southwest 400 460 22,400 -2,298 Descending Atlanta Center
Wed 07:58:08 AM 34.4047 -83.5000 221° Southwest 383 441 20,200 -2,100 Descending Atlanta Center
Wed 07:59:08 AM 34.3319 -83.5836 224° Southwest 371 427 18,200 -2,050 Descending Atlanta Center
Wed 08:00:08 AM 34.2611 -83.6567 220° Southwest 355 409 16,100 -2,050 Descending Atlanta Center
Wed 08:01:08 AM 34.1906 -83.7325 222° Southwest 343 395 14,100 -1,900 Descending Atlanta Center
Wed 08:02:08 AM 34.1217 -83.8056 221° Southwest 336 387 12,300 -1,150 Descending Atlanta Center
Wed 08:03:08 AM 34.0592 -83.8708 221° Southwest 318 366 11,800 -933 Descending Atlanta Center
Wed 08:03:38 AM 34.0333 -83.9000 223° Southwest 331 381 10,900 -1,533 Descending Atlanta TRACON
Wed 08:04:38 AM 33.9667 -83.9667 220° Southwest 284 327 9,500 -950 Descending Atlanta TRACON
Wed 08:05:38 AM 33.8833 -83.9667 180° South 294 338 9,000 -333 Descending Atlanta TRACON
Wed 08:06:08 AM 33.8547 -83.9664 180° South 277 319 9,000  Level Atlanta Center
Wed 08:07:08 AM 33.7775 -83.9614 177° South 289 333 9,000 -500 Level Atlanta Center
Wed 08:08:08 AM 33.7108 -83.9764 191° South 268 308 8,000 -846 Descending Atlanta Center
Wed 08:09:44 AM 33.6333 -84.0500 218° Southwest 230 265 6,800 -846 Descending Atlanta TRACON
Wed 08:10:44 AM 33.6333 -84.1167 270° West 217 250 5,800 -1,000 Descending Atlanta TRACON
Wed 08:11:44 AM 33.6333 -84.1833 270° West 213 245 4,800 -1,050 Descending Atlanta TRACON
Wed 08:12:44 AM 33.6333 -84.2500 270° West 197 227 3,700 -1,050 Descending Atlanta TRACON
Wed 08:13:44 AM 33.6333 -84.3167 270° West 181 208 2,700 -950 Descending Atlanta TRACON
Wed 08:14:44 AM 33.6333 -84.3667 270° West 152 175 1,800 -750 Descending Atlanta TRACON
Wed 08:15:44 AM 33.6333 -84.4167 270° West 129 148 1,200 -600 Descending Atlanta TRACON

Login

Don't have an account? Register now (free) for customized features, flight alerts, and more!